createdAt,value
2023-07-09T00:01:32.222Z,65.48
2023-07-09T00:03:59.913Z,65.81
2023-07-09T00:06:27.637Z,65.55
2023-07-09T00:08:55.339Z,65.66
2023-07-09T00:11:23.230Z,66.00
2023-07-09T00:13:51.006Z,66.36
2023-07-09T00:16:22.800Z,66.45
2023-07-09T00:18:52.084Z,66.74
2023-07-09T00:21:21.351Z,66.86
2023-07-09T00:23:49.980Z,66.64
2023-07-09T00:26:21.647Z,66.86
2023-07-09T00:28:49.429Z,67.40
2023-07-09T00:31:18.586Z,67.58
2023-07-09T00:33:47.603Z,67.51
2023-07-09T00:36:20.737Z,67.63
2023-07-09T00:38:49.230Z,67.52
2023-07-09T00:41:20.295Z,68.27
2023-07-09T00:43:49.684Z,69.17
2023-07-09T00:46:50.853Z,69.28
2023-07-09T00:49:31.926Z,69.79
2023-07-09T00:52:04.000Z,70.23
2023-07-09T00:54:37.829Z,69.94
2023-07-09T00:57:11.062Z,70.02
2023-07-09T00:59:38.954Z,69.73
2023-07-09T01:02:08.914Z,69.41
2023-07-09T01:04:37.252Z,69.34
2023-07-09T01:07:06.856Z,69.59
2023-07-09T01:09:36.730Z,69.57
2023-07-09T01:12:07.762Z,70.38
2023-07-09T01:14:37.064Z,71.01
2023-07-09T01:17:09.418Z,71.43
2023-07-09T01:19:44.495Z,71.59
2023-07-09T01:22:16.301Z,71.78
2023-07-09T01:24:56.998Z,71.73
2023-07-09T01:27:27.563Z,71.88
2023-07-09T01:29:56.744Z,72.24
2023-07-09T01:32:24.611Z,72.04
2023-07-09T01:34:55.326Z,72.05
2023-07-09T01:37:27.590Z,72.38
2023-07-09T01:39:55.504Z,72.41
2023-07-09T01:42:25.156Z,72.43
2023-07-09T01:44:55.473Z,72.62
2023-07-09T01:47:25.076Z,73.23
2023-07-09T01:49:58.330Z,73.40
2023-07-09T01:52:31.043Z,73.85
2023-07-09T01:54:59.340Z,73.70
2023-07-09T01:57:34.382Z,73.81
2023-07-09T02:00:06.843Z,74.02
2023-07-09T02:02:43.950Z,74.60
2023-07-09T02:05:13.912Z,74.55
2023-07-09T02:07:43.072Z,74.50
2023-07-09T02:10:11.960Z,74.84
2023-07-09T02:12:39.860Z,75.48
2023-07-09T02:15:09.004Z,76.06
2023-07-09T02:17:36.969Z,76.24
2023-07-09T02:20:06.342Z,76.23
2023-07-09T02:22:34.197Z,76.48
2023-07-09T02:25:03.605Z,76.98
2023-07-09T02:27:31.401Z,77.00
2023-07-09T02:29:59.050Z,77.22
2023-07-09T02:32:28.695Z,77.30
2023-07-09T02:34:57.472Z,77.78
2023-07-09T02:37:27.382Z,78.30
2023-07-09T02:39:55.357Z,78.46
2023-07-09T02:42:25.247Z,78.32
2023-07-09T02:44:53.598Z,78.47
2023-07-09T02:47:22.152Z,78.95
2023-07-09T02:49:51.195Z,79.09
2023-07-09T02:52:19.518Z,79.26
2023-07-09T02:54:47.203Z,79.60
2023-07-09T02:57:14.995Z,79.69
2023-07-09T02:59:44.352Z,80.05
2023-07-09T03:02:14.604Z,80.28
2023-07-09T03:04:42.325Z,80.66
2023-07-09T03:07:10.036Z,81.06
2023-07-09T03:09:37.778Z,80.95
2023-07-09T03:12:06.307Z,80.99
2023-07-09T03:14:34.581Z,81.62
2023-07-09T03:17:03.803Z,81.50
2023-07-09T03:19:31.918Z,81.79
2023-07-09T03:22:00.634Z,82.26
2023-07-09T03:24:28.321Z,82.08
2023-07-09T03:26:55.966Z,82.54
2023-07-09T03:29:23.601Z,82.84
2023-07-09T03:31:51.369Z,83.17
2023-07-09T03:34:20.355Z,82.64
2023-07-09T03:36:48.015Z,82.12
2023-07-09T03:39:15.656Z,82.40
2023-07-09T03:41:43.333Z,82.84
2023-07-09T03:44:10.998Z,83.42
2023-07-09T03:46:38.671Z,83.38
2023-07-09T03:49:06.376Z,83.46
2023-07-09T03:51:35.386Z,83.57
2023-07-09T03:54:03.043Z,83.85
2023-07-09T03:56:30.714Z,84.09
2023-07-09T03:58:58.579Z,83.99
2023-07-09T04:01:26.243Z,84.02
2023-07-09T04:03:53.942Z,84.34
2023-07-09T04:06:21.672Z,84.43
2023-07-09T04:08:50.904Z,84.67
2023-07-09T04:11:18.866Z,84.80
2023-07-09T04:13:46.580Z,84.89
2023-07-09T04:16:14.450Z,84.91
2023-07-09T04:18:44.620Z,84.95
2023-07-09T04:21:12.254Z,85.28
2023-07-09T04:23:39.996Z,85.35
2023-07-09T04:26:13.595Z,85.73
2023-07-09T04:28:41.249Z,86.03
2023-07-09T04:31:08.950Z,86.03
2023-07-09T04:33:37.076Z,86.15
2023-07-09T04:36:07.941Z,86.25
2023-07-09T04:38:35.602Z,86.64
2023-07-09T04:41:03.429Z,87.19
2023-07-09T04:43:32.839Z,87.60
2023-07-09T04:46:00.642Z,88.06
2023-07-09T04:48:28.456Z,88.65
2023-07-09T04:50:56.093Z,89.63
2023-07-09T04:53:25.214Z,89.85
2023-07-09T04:55:53.056Z,89.76
2023-07-09T04:58:20.720Z,89.42
2023-07-09T05:00:51.893Z,88.96
2023-07-09T05:03:20.727Z,89.13
2023-07-09T05:05:49.208Z,90.37
2023-07-09T05:08:17.728Z,89.16
2023-07-09T05:10:45.633Z,87.27
2023-07-09T05:13:14.024Z,86.41
2023-07-09T05:15:43.611Z,86.54
2023-07-09T05:18:13.176Z,86.59
2023-07-09T05:20:41.902Z,86.42
2023-07-09T05:23:10.318Z,85.59
2023-07-09T05:25:38.248Z,84.31
2023-07-09T05:28:06.934Z,83.40
2023-07-09T05:30:34.927Z,82.98
2023-07-09T05:33:02.628Z,82.69
2023-07-09T05:35:31.628Z,82.67
2023-07-09T05:37:59.250Z,82.92
2023-07-09T05:40:26.900Z,82.35
2023-07-09T05:42:54.540Z,82.23
2023-07-09T05:45:22.169Z,81.80
2023-07-09T05:47:49.806Z,80.49
2023-07-09T05:50:17.725Z,80.08
2023-07-09T05:52:46.754Z,78.84
2023-07-09T05:55:14.392Z,77.53
2023-07-09T05:57:42.030Z,77.57
2023-07-09T06:00:13.083Z,77.06
2023-07-09T06:02:44.678Z,76.87
2023-07-09T06:05:13.052Z,76.51
2023-07-09T06:07:41.296Z,76.04
2023-07-09T06:10:11.639Z,74.89
2023-07-09T06:12:39.321Z,74.49
2023-07-09T06:15:08.509Z,74.08
2023-07-09T06:17:36.253Z,72.58
2023-07-09T06:20:04.893Z,71.68
2023-07-09T06:22:32.620Z,71.54
2023-07-09T06:25:00.281Z,71.60
2023-07-09T06:27:29.305Z,72.00
2023-07-09T06:29:56.952Z,71.62
2023-07-09T06:32:24.647Z,70.39
2023-07-09T06:34:52.829Z,70.28
2023-07-09T06:37:20.483Z,70.74
2023-07-09T06:39:48.135Z,71.10
2023-07-09T06:42:16.236Z,70.99
2023-07-09T06:45:07.717Z,70.67
2023-07-09T06:47:35.455Z,70.63
2023-07-09T06:50:04.321Z,69.93
2023-07-09T06:52:32.250Z,69.11
2023-07-09T06:55:00.001Z,68.25
2023-07-09T06:57:27.662Z,68.60
2023-07-09T06:59:55.771Z,69.24
2023-07-09T07:02:25.450Z,68.46
2023-07-09T07:04:53.254Z,67.43
2023-07-09T07:07:21.806Z,67.39
2023-07-09T07:09:49.536Z,67.76
2023-07-09T07:12:25.932Z,68.17
2023-07-09T07:14:53.647Z,68.21
2023-07-09T07:17:21.503Z,68.27
2023-07-09T07:19:52.320Z,67.75
2023-07-09T07:22:19.974Z,67.52
2023-07-09T07:24:47.942Z,66.86
2023-07-09T07:27:15.599Z,66.27
2023-07-09T07:29:43.570Z,65.05
2023-07-09T07:32:11.306Z,64.74
2023-07-09T07:34:39.073Z,64.06
2023-07-09T07:37:08.163Z,62.53
2023-07-09T07:39:35.840Z,62.26
2023-07-09T07:42:05.232Z,61.83
2023-07-09T07:44:35.139Z,62.18
2023-07-09T07:47:02.875Z,62.31
2023-07-09T07:49:30.610Z,62.46
2023-07-09T07:51:58.439Z,62.22
2023-07-09T07:54:27.407Z,61.40
2023-07-09T07:56:55.076Z,60.50
2023-07-09T07:59:22.870Z,60.52
2023-07-09T08:01:51.089Z,60.86
2023-07-09T08:04:19.832Z,60.09
2023-07-09T08:06:48.121Z,58.52
2023-07-09T08:09:15.745Z,59.05
2023-07-09T08:11:44.751Z,59.85
2023-07-09T08:14:13.189Z,58.75
2023-07-09T08:16:41.115Z,59.32
2023-07-09T08:19:09.085Z,59.50
2023-07-09T08:21:36.726Z,59.41
2023-07-09T08:24:04.636Z,58.43
2023-07-09T08:26:33.738Z,58.02
2023-07-09T08:29:02.770Z,57.22
2023-07-09T08:31:30.459Z,57.45
2023-07-09T08:33:58.199Z,56.89
2023-07-09T08:36:27.020Z,56.34
2023-07-09T08:38:55.617Z,56.84
2023-07-09T08:41:37.910Z,55.94
2023-07-09T08:44:23.586Z,55.37
2023-07-09T08:47:01.878Z,54.97
2023-07-09T08:49:39.414Z,56.71
2023-07-09T08:52:16.617Z,56.81
2023-07-09T08:54:46.356Z,55.89
2023-07-09T08:57:21.258Z,55.21
2023-07-09T08:59:51.658Z,54.68
2023-07-09T09:02:32.353Z,54.72
2023-07-09T09:05:00.030Z,51.79
2023-07-09T09:07:38.724Z,51.72
2023-07-09T09:10:07.158Z,51.75
2023-07-09T09:12:40.582Z,49.91
2023-07-09T09:15:16.946Z,50.23
2023-07-09T09:17:44.790Z,49.61
2023-07-09T09:20:19.630Z,49.48
2023-07-09T09:22:51.109Z,47.88
2023-07-09T09:25:26.248Z,48.65
2023-07-09T09:27:53.928Z,47.24
2023-07-09T09:30:25.325Z,45.98
2023-07-09T09:32:56.393Z,46.29
2023-07-09T09:35:29.837Z,46.12
2023-07-09T09:37:59.639Z,45.43
2023-07-09T09:40:29.532Z,44.81
2023-07-09T09:43:00.337Z,43.00
2023-07-09T09:45:34.080Z,41.50
2023-07-09T09:48:03.139Z,39.39
2023-07-09T09:50:36.933Z,39.36
2023-07-09T09:53:08.953Z,39.99
2023-07-09T09:55:36.818Z,39.68
2023-07-09T09:58:04.493Z,38.00
2023-07-09T10:00:34.539Z,37.73
2023-07-09T10:03:07.972Z,38.52
2023-07-09T10:05:42.263Z,37.95
2023-07-09T10:08:14.433Z,36.94
2023-07-09T10:10:46.983Z,35.96
2023-07-09T10:13:23.954Z,37.34
2023-07-09T10:16:05.674Z,35.07
2023-07-09T10:18:45.001Z,32.51
2023-07-09T10:21:19.545Z,32.55
2023-07-09T10:23:57.149Z,32.35
2023-07-09T10:26:32.082Z,31.60
2023-07-09T10:29:16.280Z,31.38
2023-07-09T10:31:52.804Z,33.33
2023-07-09T10:34:31.134Z,33.71
2023-07-09T10:37:19.565Z,33.26
2023-07-09T10:39:51.915Z,31.20
2023-07-09T10:42:25.786Z,29.03
2023-07-09T10:45:00.043Z,29.72
2023-07-09T10:47:34.643Z,28.51
2023-07-09T10:50:05.691Z,28.75
2023-07-09T10:52:36.971Z,28.01
2023-07-09T10:55:10.220Z,29.76
2023-07-09T10:57:46.740Z,27.89
2023-07-09T11:00:18.528Z,27.75
2023-07-09T11:02:50.124Z,27.73
2023-07-09T11:05:19.671Z,26.68
2023-07-09T11:07:54.838Z,27.32
2023-07-09T11:10:30.920Z,26.14
2023-07-09T11:13:04.434Z,26.65
2023-07-09T11:15:34.670Z,27.60
2023-07-09T11:18:07.547Z,27.87
2023-07-09T11:20:37.552Z,26.88
2023-07-09T11:23:07.264Z,25.18
2023-07-09T11:25:43.699Z,25.14
2023-07-09T11:28:11.818Z,24.92
2023-07-09T11:30:50.760Z,24.95
2023-07-09T11:33:25.529Z,25.49
2023-07-09T11:35:55.840Z,24.97
2023-07-09T11:38:25.551Z,26.48
2023-07-09T11:40:55.359Z,27.45
2023-07-09T11:43:31.736Z,26.42
2023-07-09T11:46:08.020Z,26.73
2023-07-09T11:48:38.113Z,27.26
2023-07-09T11:51:11.011Z,25.51
2023-07-09T11:53:45.449Z,23.70
2023-07-09T11:56:16.441Z,22.79
2023-07-09T11:58:51.424Z,22.44
2023-07-09T12:01:21.191Z,23.89
2023-07-09T12:03:52.099Z,24.11
2023-07-09T12:06:22.632Z,23.07
2023-07-09T12:08:51.916Z,23.03
2023-07-09T12:11:24.909Z,23.51
2023-07-09T12:13:53.177Z,24.71
2023-07-09T12:16:27.222Z,24.39
2023-07-09T12:18:56.656Z,23.78
2023-07-09T12:21:25.787Z,24.27
2023-07-09T12:23:54.752Z,24.74
2023-07-09T12:26:22.511Z,24.65
2023-07-09T12:28:54.232Z,23.55
2023-07-09T12:31:27.712Z,23.35
2023-07-09T12:33:59.869Z,23.40
2023-07-09T12:36:29.408Z,23.31
2023-07-09T12:39:01.526Z,24.02
2023-07-09T12:41:31.598Z,24.34
2023-07-09T12:43:59.282Z,24.48
2023-07-09T12:46:28.443Z,23.47
2023-07-09T12:48:58.280Z,22.28
2023-07-09T12:51:30.030Z,22.22
2023-07-09T12:54:05.996Z,20.11
2023-07-09T12:56:36.992Z,20.53
2023-07-09T12:59:17.156Z,20.61
2023-07-09T13:01:50.520Z,21.28
2023-07-09T13:04:19.989Z,20.91
2023-07-09T13:06:48.080Z,21.71
2023-07-09T13:09:22.318Z,20.85
2023-07-09T13:11:50.485Z,22.33
2023-07-09T13:14:21.255Z,21.46
2023-07-09T13:16:49.432Z,20.31
2023-07-09T13:19:17.116Z,20.94
2023-07-09T13:21:46.595Z,21.51
2023-07-09T13:24:17.915Z,20.62
2023-07-09T13:26:45.539Z,21.80
2023-07-09T13:29:15.543Z,22.01
2023-07-09T13:31:43.991Z,22.65
2023-07-09T13:34:22.237Z,21.02
2023-07-09T13:36:52.761Z,20.59
2023-07-09T13:39:21.809Z,19.85
2023-07-09T13:41:51.652Z,19.33
2023-07-09T13:44:21.314Z,20.90
2023-07-09T13:46:49.031Z,21.17
2023-07-09T13:49:18.917Z,21.93
2023-07-09T13:51:48.939Z,21.54
2023-07-09T13:54:20.846Z,20.99
2023-07-09T13:56:48.569Z,21.50
2023-07-09T13:59:17.762Z,21.72
2023-07-09T14:01:46.536Z,21.43
2023-07-09T14:04:17.595Z,21.34
2023-07-09T14:06:47.215Z,20.83
2023-07-09T14:09:16.174Z,20.95
2023-07-09T14:11:47.371Z,21.18
2023-07-09T14:14:20.039Z,21.11
2023-07-09T14:16:49.843Z,21.23
2023-07-09T14:19:19.385Z,21.56
2023-07-09T14:21:47.394Z,21.74
2023-07-09T14:24:24.656Z,20.94
2023-07-09T14:26:55.387Z,21.89
2023-07-09T14:29:23.371Z,21.35
2023-07-09T14:31:51.519Z,20.50
2023-07-09T14:34:23.039Z,20.71
2023-07-09T14:36:50.889Z,20.92
2023-07-09T14:39:18.635Z,21.37
2023-07-09T14:41:46.585Z,21.40
2023-07-09T14:44:24.604Z,21.55
2023-07-09T14:46:53.047Z,21.45
2023-07-09T14:49:21.140Z,20.53
2023-07-09T14:51:49.634Z,20.66
2023-07-09T14:54:24.353Z,21.17
2023-07-09T14:56:53.780Z,21.21
2023-07-09T14:59:22.910Z,21.16
2023-07-09T15:01:51.859Z,21.64
2023-07-09T15:04:31.789Z,21.84
2023-07-09T15:07:00.352Z,21.98
2023-07-09T15:09:29.973Z,21.88
2023-07-09T15:12:00.481Z,21.94
2023-07-09T15:14:29.960Z,21.83
2023-07-09T15:17:01.054Z,21.85
2023-07-09T15:19:29.305Z,21.27
2023-07-09T15:21:57.187Z,21.39
2023-07-09T15:24:29.025Z,21.89
2023-07-09T15:26:58.128Z,21.90
2023-07-09T15:29:25.999Z,21.82
2023-07-09T15:31:55.025Z,22.36
2023-07-09T15:34:22.752Z,22.05
2023-07-09T15:36:53.111Z,21.47
2023-07-09T15:39:22.072Z,21.86
2023-07-09T15:41:50.336Z,22.47
2023-07-09T15:44:22.514Z,22.71
2023-07-09T15:46:55.339Z,22.69
2023-07-09T15:49:25.061Z,22.57
2023-07-09T15:51:53.031Z,23.22
2023-07-09T15:54:23.376Z,23.63
2023-07-09T15:56:53.090Z,23.28
2023-07-09T15:59:28.578Z,23.67
2023-07-09T16:01:56.950Z,23.75
2023-07-09T16:04:26.926Z,24.50
2023-07-09T16:06:55.171Z,23.99
2023-07-09T16:09:24.227Z,24.38
2023-07-09T16:11:54.960Z,24.33
2023-07-09T16:14:26.040Z,24.54
2023-07-09T16:16:55.807Z,24.16
2023-07-09T16:19:27.330Z,24.57
2023-07-09T16:21:56.966Z,25.45
2023-07-09T16:24:27.647Z,25.02
2023-07-09T16:26:55.303Z,24.73
2023-07-09T16:29:26.060Z,25.24
2023-07-09T16:31:55.485Z,24.66
2023-07-09T16:34:24.148Z,25.13
2023-07-09T16:36:53.550Z,25.42
2023-07-09T16:39:31.351Z,25.98
2023-07-09T16:42:00.282Z,26.21
2023-07-09T16:44:28.348Z,26.69
2023-07-09T16:46:56.921Z,26.92
2023-07-09T16:49:30.790Z,27.13
2023-07-09T16:52:00.974Z,26.47
2023-07-09T16:54:28.883Z,26.71
2023-07-09T16:56:57.169Z,27.46
2023-07-09T16:59:26.162Z,28.40
2023-07-09T17:01:53.810Z,28.81
2023-07-09T17:04:24.694Z,28.91
2023-07-09T17:06:52.840Z,29.25
2023-07-09T17:09:22.769Z,29.46
2023-07-09T17:11:58.104Z,29.99
2023-07-09T17:14:26.444Z,30.65
2023-07-09T17:16:54.153Z,31.07
2023-07-09T17:19:21.854Z,31.65
2023-07-09T17:21:52.444Z,31.73
2023-07-09T17:24:24.747Z,31.97
2023-07-09T17:26:53.534Z,32.23
2023-07-09T17:29:22.188Z,33.05
2023-07-09T17:31:51.517Z,33.50
2023-07-09T17:34:19.733Z,34.04
2023-07-09T17:36:48.573Z,33.98
2023-07-09T17:39:21.513Z,34.26
2023-07-09T17:41:51.109Z,34.56
2023-07-09T17:44:20.486Z,33.83
2023-07-09T17:46:49.858Z,34.02
2023-07-09T17:49:22.562Z,33.77
2023-07-09T17:51:50.249Z,32.88
2023-07-09T17:54:19.441Z,32.63
2023-07-09T17:56:48.589Z,33.57
2023-07-09T17:59:20.029Z,33.04
2023-07-09T18:01:51.707Z,33.04
2023-07-09T18:04:30.319Z,33.01
2023-07-09T18:07:02.477Z,33.20
2023-07-09T18:09:30.235Z,34.11
2023-07-09T18:11:57.849Z,34.26
2023-07-09T18:14:32.485Z,34.54
2023-07-09T18:17:00.247Z,34.77
2023-07-09T18:19:29.807Z,34.61
2023-07-09T18:22:02.267Z,35.58
2023-07-09T18:24:29.989Z,35.87
2023-07-09T18:26:57.749Z,36.17
2023-07-09T18:29:32.752Z,36.58
2023-07-09T18:32:03.988Z,36.97
2023-07-09T18:34:32.390Z,37.54
2023-07-09T18:37:03.417Z,37.37
2023-07-09T18:39:31.164Z,37.64
2023-07-09T18:41:58.924Z,38.28
2023-07-09T18:44:28.826Z,38.37
2023-07-09T18:46:56.589Z,39.06
2023-07-09T18:49:24.328Z,39.22
2023-07-09T18:51:52.188Z,39.25
2023-07-09T18:54:22.762Z,39.87
2023-07-09T18:56:50.538Z,39.62
2023-07-09T18:59:20.173Z,40.18
2023-07-09T19:01:50.893Z,40.08
2023-07-09T19:04:20.428Z,40.34
2023-07-09T19:06:49.246Z,41.41
2023-07-09T19:09:19.055Z,40.80
2023-07-09T19:11:49.273Z,41.77
2023-07-09T19:14:17.244Z,41.94
2023-07-09T19:16:50.190Z,41.67
2023-07-09T19:19:20.891Z,41.56
2023-07-09T19:21:51.160Z,42.04
2023-07-09T19:24:23.667Z,42.32
2023-07-09T19:26:52.760Z,42.96
2023-07-09T19:29:22.216Z,42.50
2023-07-09T19:31:54.264Z,42.36
2023-07-09T19:34:24.210Z,42.72
2023-07-09T19:36:56.211Z,43.35
2023-07-09T19:39:28.653Z,43.44
2023-07-09T19:42:01.395Z,43.12
2023-07-09T19:44:29.056Z,43.59
2023-07-09T19:46:59.781Z,44.09
2023-07-09T19:49:27.416Z,43.74
2023-07-09T19:51:55.066Z,44.43
2023-07-09T19:54:22.673Z,44.85
2023-07-09T19:56:50.367Z,45.57
2023-07-09T19:59:19.807Z,45.95
2023-07-09T20:01:49.262Z,46.55
2023-07-09T20:04:18.457Z,46.61
2023-07-09T20:06:46.191Z,47.38
2023-07-09T20:09:15.160Z,47.57
2023-07-09T20:11:44.541Z,48.34
2023-07-09T20:14:16.064Z,48.56
2023-07-09T20:16:43.785Z,50.00
2023-07-09T20:19:14.814Z,50.32
2023-07-09T20:21:45.903Z,50.55
2023-07-09T20:24:17.185Z,51.14
2023-07-09T20:26:44.962Z,51.32
2023-07-09T20:29:14.709Z,51.18
2023-07-09T20:31:43.320Z,51.15
2023-07-09T20:34:16.256Z,51.18
2023-07-09T20:36:45.568Z,51.31
2023-07-09T20:39:15.486Z,52.06
2023-07-09T20:41:45.068Z,51.62
2023-07-09T20:44:14.560Z,52.19
2023-07-09T20:46:42.776Z,51.63
2023-07-09T20:49:22.667Z,50.73
2023-07-09T20:51:51.678Z,49.85
2023-07-09T20:54:19.426Z,49.99
2023-07-09T20:56:47.193Z,50.26
2023-07-09T20:59:19.094Z,50.63
2023-07-09T21:01:47.681Z,50.36
2023-07-09T21:04:17.943Z,50.34
2023-07-09T21:06:46.777Z,50.55
2023-07-09T21:09:19.504Z,50.66
2023-07-09T21:11:50.014Z,51.27
2023-07-09T21:14:18.493Z,51.43
2023-07-09T21:16:49.503Z,51.35
2023-07-09T21:19:23.750Z,51.72
2023-07-09T21:21:51.994Z,52.21
2023-07-09T21:24:25.936Z,52.85
2023-07-09T21:26:54.678Z,53.31
2023-07-09T21:29:22.525Z,52.18
2023-07-09T21:31:51.877Z,52.19
2023-07-09T21:34:22.897Z,52.41
2023-07-09T21:36:50.939Z,53.36
2023-07-09T21:39:20.435Z,54.58
2023-07-09T21:41:54.658Z,54.67
2023-07-09T21:44:23.184Z,54.25
2023-07-09T21:46:53.741Z,53.66
2023-07-09T21:49:23.720Z,54.60
2023-07-09T21:51:51.673Z,55.52
2023-07-09T21:54:58.793Z,55.27
2023-07-09T21:57:21.646Z,53.63
2023-07-09T21:59:49.366Z,53.04
2023-07-09T22:02:20.553Z,49.88
2023-07-09T22:04:51.408Z,47.19
2023-07-09T22:07:22.087Z,47.01
2023-07-09T22:09:50.295Z,48.86
2023-07-09T22:12:21.254Z,50.76
2023-07-09T22:14:52.450Z,52.94
2023-07-09T22:17:26.955Z,55.60
2023-07-09T22:19:55.415Z,58.65
2023-07-09T22:22:23.330Z,61.21
2023-07-09T22:24:51.409Z,63.49
2023-07-09T22:27:19.495Z,65.38
2023-07-09T22:29:47.180Z,67.63
2023-07-09T22:32:19.636Z,69.07
2023-07-09T22:34:47.706Z,70.74
2023-07-09T22:37:20.744Z,72.05
2023-07-09T22:39:48.464Z,73.01
2023-07-09T22:42:16.110Z,74.46
2023-07-09T22:44:44.357Z,75.46
2023-07-09T22:47:19.273Z,76.26
2023-07-09T22:49:47.752Z,78.77
2023-07-09T22:52:16.775Z,80.78
2023-07-09T22:54:45.720Z,81.10
2023-07-09T22:57:16.488Z,81.74
2023-07-09T22:59:44.109Z,82.79
2023-07-09T23:02:12.573Z,83.53
2023-07-09T23:04:41.958Z,84.04
2023-07-09T23:07:12.647Z,85.01
2023-07-09T23:09:41.009Z,85.91
2023-07-09T23:12:13.286Z,86.36
2023-07-09T23:14:41.169Z,87.16
2023-07-09T23:17:13.352Z,88.29
2023-07-09T23:19:42.886Z,89.16
2023-07-09T23:22:10.683Z,89.74
2023-07-09T23:24:38.395Z,90.68
2023-07-09T23:27:07.281Z,90.31
2023-07-09T23:29:34.929Z,89.61
2023-07-09T23:32:02.583Z,89.73
2023-07-09T23:34:30.242Z,89.63
2023-07-09T23:36:59.268Z,89.64
2023-07-09T23:39:29.221Z,89.03
2023-07-09T23:41:58.521Z,88.89
2023-07-09T23:44:30.814Z,89.44
2023-07-09T23:46:59.110Z,90.39
2023-07-09T23:49:29.102Z,91.53
2023-07-09T23:51:59.664Z,92.16
2023-07-09T23:54:27.344Z,92.64
2023-07-09T23:56:55.398Z,92.63
2023-07-09T23:59:32.040Z,92.77
